Terminal Aerodrome Forecast
Issued by NWS

Home | Current Version | Previous Version | Text Only | Print | Product List | Glossary On
Versions: 1 2 3 4 5 6 7 8 9 10 11 12 13 14 15 16 17 18 19 20 21 22 23 24 25 26 27 28 29 30 31 32 33 34 35 36 37 38 39 40
000
FTAK31 PAFA 011747
TAFAUN
TAF
PAUN 011747Z 0118/0218 24013KT P6SM VCSH OVC050
     FM012000 25013KT P6SM -SHRA BKN025=

USA.gov is the U.S. government's official web portal to all federal, state and local government web resources and services.